sensor_id;sensor_type;location;lat;lon;timestamp;P1;durP1;ratioP1;P2;durP2;ratioP2
70667;SDS011;58242;51.250;-1.118;2023-04-06T00:01:24;2.00;;;1.90;;
70667;SDS011;58242;51.250;-1.118;2023-04-06T00:03:49;2.20;;;2.10;;
70667;SDS011;58242;51.250;-1.118;2023-04-06T00:06:14;2.22;;;2.13;;
70667;SDS011;58242;51.250;-1.118;2023-04-06T00:08:40;2.30;;;2.20;;
70667;SDS011;58242;51.250;-1.118;2023-04-06T00:11:06;1.90;;;1.90;;
70667;SDS011;58242;51.250;-1.118;2023-04-06T00:13:31;2.30;;;2.10;;
70667;SDS011;58242;51.250;-1.118;2023-04-06T00:15:56;1.67;;;1.67;;
70667;SDS011;58242;51.250;-1.118;2023-04-06T00:18:22;2.08;;;1.98;;
70667;SDS011;58242;51.250;-1.118;2023-04-06T00:20:48;2.08;;;1.98;;
70667;SDS011;58242;51.250;-1.118;2023-04-06T00:23:13;2.20;;;2.10;;
70667;SDS011;58242;51.250;-1.118;2023-04-06T00:25:38;1.80;;;1.80;;
70667;SDS011;58242;51.250;-1.118;2023-04-06T00:28:04;1.60;;;1.60;;
70667;SDS011;58242;51.250;-1.118;2023-04-06T00:30:29;2.05;;;1.95;;
70667;SDS011;58242;51.250;-1.118;2023-04-06T00:32:55;1.80;;;1.70;;
70667;SDS011;58242;51.250;-1.118;2023-04-06T00:35:20;1.83;;;1.80;;
70667;SDS011;58242;51.250;-1.118;2023-04-06T00:37:46;2.08;;;1.98;;
70667;SDS011;58242;51.250;-1.118;2023-04-06T00:40:13;2.60;;;2.30;;
70667;SDS011;58242;51.250;-1.118;2023-04-06T00:42:38;1.70;;;1.70;;
70667;SDS011;58242;51.250;-1.118;2023-04-06T00:45:04;1.88;;;1.85;;
70667;SDS011;58242;51.250;-1.118;2023-04-06T00:47:29;1.80;;;1.80;;
70667;SDS011;58242;51.250;-1.118;2023-04-06T00:49:55;1.85;;;1.80;;
70667;SDS011;58242;51.250;-1.118;2023-04-06T00:52:20;2.13;;;2.03;;
70667;SDS011;58242;51.250;-1.118;2023-04-06T00:54:46;1.70;;;1.70;;
70667;SDS011;58242;51.250;-1.118;2023-04-06T00:57:12;1.85;;;1.85;;
70667;SDS011;58242;51.250;-1.118;2023-04-06T00:59:37;2.13;;;2.03;;
70667;SDS011;58242;51.250;-1.118;2023-04-06T01:02:03;1.85;;;1.85;;
70667;SDS011;58242;51.250;-1.118;2023-04-06T01:04:28;1.77;;;1.77;;
70667;SDS011;58242;51.250;-1.118;2023-04-06T01:06:54;1.88;;;1.88;;
70667;SDS011;58242;51.250;-1.118;2023-04-06T01:09:19;1.90;;;1.90;;
70667;SDS011;58242;51.250;-1.118;2023-04-06T01:11:45;1.90;;;1.80;;
70667;SDS011;58242;51.250;-1.118;2023-04-06T01:14:10;1.75;;;1.75;;
70667;SDS011;58242;51.250;-1.118;2023-04-06T01:16:36;1.63;;;1.63;;
70667;SDS011;58242;51.250;-1.118;2023-04-06T01:19:08;1.60;;;1.60;;
70667;SDS011;58242;51.250;-1.118;2023-04-06T01:21:36;1.80;;;1.80;;
70667;SDS011;58242;51.250;-1.118;2023-04-06T01:24:02;2.17;;;2.08;;
70667;SDS011;58242;51.250;-1.118;2023-04-06T01:26:27;2.10;;;2.00;;
70667;SDS011;58242;51.250;-1.118;2023-04-06T01:28:54;1.92;;;1.83;;
70667;SDS011;58242;51.250;-1.118;2023-04-06T01:31:20;1.65;;;1.65;;
70667;SDS011;58242;51.250;-1.118;2023-04-06T01:33:45;1.73;;;1.73;;
70667;SDS011;58242;51.250;-1.118;2023-04-06T01:36:11;1.52;;;1.52;;
70667;SDS011;58242;51.250;-1.118;2023-04-06T01:38:37;1.80;;;1.80;;
70667;SDS011;58242;51.250;-1.118;2023-04-06T01:41:02;1.58;;;1.58;;
70667;SDS011;58242;51.250;-1.118;2023-04-06T01:43:27;1.70;;;1.60;;
70667;SDS011;58242;51.250;-1.118;2023-04-06T01:45:53;1.55;;;1.55;;
70667;SDS011;58242;51.250;-1.118;2023-04-06T01:48:18;1.70;;;1.70;;
70667;SDS011;58242;51.250;-1.118;2023-04-06T01:50:43;1.70;;;1.70;;
70667;SDS011;58242;51.250;-1.118;2023-04-06T01:53:09;1.70;;;1.70;;
70667;SDS011;58242;51.250;-1.118;2023-04-06T01:55:34;1.83;;;1.83;;
70667;SDS011;58242;51.250;-1.118;2023-04-06T01:58:00;1.80;;;1.80;;
70667;SDS011;58242;51.250;-1.118;2023-04-06T02:00:25;1.65;;;1.65;;
70667;SDS011;58242;51.250;-1.118;2023-04-06T02:02:50;1.60;;;1.60;;
70667;SDS011;58242;51.250;-1.118;2023-04-06T02:05:15;1.70;;;1.70;;
70667;SDS011;58242;51.250;-1.118;2023-04-06T02:07:41;1.77;;;1.77;;
70667;SDS011;58242;51.250;-1.118;2023-04-06T02:10:10;1.73;;;1.73;;
70667;SDS011;58242;51.250;-1.118;2023-04-06T02:12:37;1.90;;;1.80;;
70667;SDS011;58242;51.250;-1.118;2023-04-06T02:15:03;1.40;;;1.40;;
70667;SDS011;58242;51.250;-1.118;2023-04-06T02:17:29;1.80;;;1.80;;
70667;SDS011;58242;51.250;-1.118;2023-04-06T02:19:54;1.80;;;1.80;;
70667;SDS011;58242;51.250;-1.118;2023-04-06T02:22:19;2.10;;;2.00;;
70667;SDS011;58242;51.250;-1.118;2023-04-06T02:24:45;1.80;;;1.80;;
70667;SDS011;58242;51.250;-1.118;2023-04-06T02:27:11;2.03;;;2.00;;
70667;SDS011;58242;51.250;-1.118;2023-04-06T02:29:37;2.30;;;2.20;;
70667;SDS011;58242;51.250;-1.118;2023-04-06T02:32:02;2.13;;;2.03;;
70667;SDS011;58242;51.250;-1.118;2023-04-06T02:34:27;1.80;;;1.80;;
70667;SDS011;58242;51.250;-1.118;2023-04-06T02:36:54;1.80;;;1.80;;
70667;SDS011;58242;51.250;-1.118;2023-04-06T02:39:20;1.92;;;1.83;;
70667;SDS011;58242;51.250;-1.118;2023-04-06T02:41:45;1.70;;;1.70;;
70667;SDS011;58242;51.250;-1.118;2023-04-06T02:44:10;1.80;;;1.80;;
70667;SDS011;58242;51.250;-1.118;2023-04-06T02:46:36;2.00;;;1.90;;
70667;SDS011;58242;51.250;-1.118;2023-04-06T02:49:01;1.50;;;1.50;;
70667;SDS011;58242;51.250;-1.118;2023-04-06T02:51:27;2.30;;;2.20;;
70667;SDS011;58242;51.250;-1.118;2023-04-06T02:53:52;1.70;;;1.70;;
70667;SDS011;58242;51.250;-1.118;2023-04-06T02:56:17;1.60;;;1.60;;
70667;SDS011;58242;51.250;-1.118;2023-04-06T02:58:43;1.80;;;1.80;;
70667;SDS011;58242;51.250;-1.118;2023-04-06T03:01:08;1.88;;;1.77;;
70667;SDS011;58242;51.250;-1.118;2023-04-06T03:03:33;1.65;;;1.65;;
70667;SDS011;58242;51.250;-1.118;2023-04-06T03:05:59;1.60;;;1.60;;
70667;SDS011;58242;51.250;-1.118;2023-04-06T03:08:25;1.77;;;1.77;;
70667;SDS011;58242;51.250;-1.118;2023-04-06T03:10:50;1.50;;;1.50;;
70667;SDS011;58242;51.250;-1.118;2023-04-06T03:13:15;1.70;;;1.70;;
70667;SDS011;58242;51.250;-1.118;2023-04-06T03:15:41;1.60;;;1.60;;
70667;SDS011;58242;51.250;-1.118;2023-04-06T03:18:06;1.75;;;1.75;;
70667;SDS011;58242;51.250;-1.118;2023-04-06T03:20:31;1.80;;;1.80;;
70667;SDS011;58242;51.250;-1.118;2023-04-06T03:22:57;2.00;;;1.90;;
70667;SDS011;58242;51.250;-1.118;2023-04-06T03:25:23;2.00;;;1.90;;
70667;SDS011;58242;51.250;-1.118;2023-04-06T03:27:48;2.03;;;2.00;;
70667;SDS011;58242;51.250;-1.118;2023-04-06T03:30:13;1.70;;;1.70;;
70667;SDS011;58242;51.250;-1.118;2023-04-06T03:32:39;2.00;;;2.00;;
70667;SDS011;58242;51.250;-1.118;2023-04-06T03:35:04;1.73;;;1.73;;
70667;SDS011;58242;51.250;-1.118;2023-04-06T03:37:30;2.03;;;1.92;;
70667;SDS011;58242;51.250;-1.118;2023-04-06T03:39:55;2.45;;;2.35;;
70667;SDS011;58242;51.250;-1.118;2023-04-06T03:42:20;2.33;;;2.22;;
70667;SDS011;58242;51.250;-1.118;2023-04-06T03:44:46;1.95;;;1.95;;
70667;SDS011;58242;51.250;-1.118;2023-04-06T03:47:11;2.20;;;2.10;;
70667;SDS011;58242;51.250;-1.118;2023-04-06T03:49:36;1.77;;;1.77;;
70667;SDS011;58242;51.250;-1.118;2023-04-06T03:52:02;2.28;;;2.17;;
70667;SDS011;58242;51.250;-1.118;2023-04-06T03:54:27;1.85;;;1.85;;
70667;SDS011;58242;51.250;-1.118;2023-04-06T03:56:52;2.78;;;2.55;;
70667;SDS011;58242;51.250;-1.118;2023-04-06T03:59:17;2.60;;;2.50;;
70667;SDS011;58242;51.250;-1.118;2023-04-06T04:01:43;2.10;;;2.00;;
70667;SDS011;58242;51.250;-1.118;2023-04-06T04:04:08;1.80;;;1.80;;
70667;SDS011;58242;51.250;-1.118;2023-04-06T04:06:33;2.13;;;2.03;;
70667;SDS011;58242;51.250;-1.118;2023-04-06T04:09:01;1.88;;;1.88;;
70667;SDS011;58242;51.250;-1.118;2023-04-06T04:11:26;1.92;;;1.92;;
70667;SDS011;58242;51.250;-1.118;2023-04-06T04:13:52;2.10;;;2.05;;
70667;SDS011;58242;51.250;-1.118;2023-04-06T04:16:17;2.05;;;1.95;;
70667;SDS011;58242;51.250;-1.118;2023-04-06T04:18:42;2.65;;;2.55;;
70667;SDS011;58242;51.250;-1.118;2023-04-06T04:21:08;2.30;;;2.20;;
70667;SDS011;58242;51.250;-1.118;2023-04-06T04:23:34;1.98;;;1.98;;
70667;SDS011;58242;51.250;-1.118;2023-04-06T04:25:59;1.80;;;1.80;;
70667;SDS011;58242;51.250;-1.118;2023-04-06T04:28:24;1.95;;;1.95;;
70667;SDS011;58242;51.250;-1.118;2023-04-06T04:30:50;1.55;;;1.55;;
70667;SDS011;58242;51.250;-1.118;2023-04-06T04:33:15;2.03;;;1.92;;
70667;SDS011;58242;51.250;-1.118;2023-04-06T04:35:40;2.08;;;1.98;;
70667;SDS011;58242;51.250;-1.118;2023-04-06T04:38:06;1.80;;;1.80;;
70667;SDS011;58242;51.250;-1.118;2023-04-06T04:40:31;1.80;;;1.80;;
70667;SDS011;58242;51.250;-1.118;2023-04-06T04:42:56;1.90;;;1.90;;
70667;SDS011;58242;51.250;-1.118;2023-04-06T04:45:22;2.28;;;2.17;;
70667;SDS011;58242;51.250;-1.118;2023-04-06T04:47:47;1.80;;;1.80;;
70667;SDS011;58242;51.250;-1.118;2023-04-06T04:50:12;2.22;;;2.17;;
70667;SDS011;58242;51.250;-1.118;2023-04-06T04:52:37;1.80;;;1.80;;
70667;SDS011;58242;51.250;-1.118;2023-04-06T04:55:03;1.98;;;1.98;;
70667;SDS011;58242;51.250;-1.118;2023-04-06T04:57:28;2.10;;;2.10;;
70667;SDS011;58242;51.250;-1.118;2023-04-06T04:59:54;1.70;;;1.70;;
70667;SDS011;58242;51.250;-1.118;2023-04-06T05:02:20;1.90;;;1.90;;
70667;SDS011;58242;51.250;-1.118;2023-04-06T05:04:45;2.03;;;2.03;;
70667;SDS011;58242;51.250;-1.118;2023-04-06T05:07:10;2.50;;;2.40;;
70667;SDS011;58242;51.250;-1.118;2023-04-06T05:09:36;2.00;;;2.00;;
70667;SDS011;58242;51.250;-1.118;2023-04-06T05:12:01;2.10;;;2.10;;
70667;SDS011;58242;51.250;-1.118;2023-04-06T05:14:27;1.90;;;1.90;;
70667;SDS011;58242;51.250;-1.118;2023-04-06T05:16:53;2.30;;;2.20;;
70667;SDS011;58242;51.250;-1.118;2023-04-06T05:19:18;2.13;;;2.03;;
70667;SDS011;58242;51.250;-1.118;2023-04-06T05:21:44;2.33;;;2.20;;
70667;SDS011;58242;51.250;-1.118;2023-04-06T05:24:09;2.58;;;2.47;;
70667;SDS011;58242;51.250;-1.118;2023-04-06T05:26:35;2.38;;;2.20;;
70667;SDS011;58242;51.250;-1.118;2023-04-06T05:29:00;2.47;;;2.38;;
70667;SDS011;58242;51.250;-1.118;2023-04-06T05:31:26;2.80;;;2.63;;
70667;SDS011;58242;51.250;-1.118;2023-04-06T05:33:51;2.50;;;2.40;;
70667;SDS011;58242;51.250;-1.118;2023-04-06T05:36:16;2.65;;;2.55;;
70667;SDS011;58242;51.250;-1.118;2023-04-06T05:38:42;2.30;;;2.30;;
70667;SDS011;58242;51.250;-1.118;2023-04-06T05:41:07;2.70;;;2.60;;
70667;SDS011;58242;51.250;-1.118;2023-04-06T05:43:32;2.35;;;2.25;;
70667;SDS011;58242;51.250;-1.118;2023-04-06T05:45:58;2.60;;;2.50;;
70667;SDS011;58242;51.250;-1.118;2023-04-06T05:48:23;2.47;;;2.28;;
70667;SDS011;58242;51.250;-1.118;2023-04-06T05:50:49;2.42;;;2.33;;
70667;SDS011;58242;51.250;-1.118;2023-04-06T05:53:18;2.60;;;2.50;;
70667;SDS011;58242;51.250;-1.118;2023-04-06T05:55:43;2.83;;;2.72;;
70667;SDS011;58242;51.250;-1.118;2023-04-06T05:58:09;2.22;;;2.13;;
70667;SDS011;58242;51.250;-1.118;2023-04-06T06:00:34;2.28;;;2.17;;
70667;SDS011;58242;51.250;-1.118;2023-04-06T06:02:59;2.17;;;2.10;;
70667;SDS011;58242;51.250;-1.118;2023-04-06T06:05:25;2.00;;;1.90;;
70667;SDS011;58242;51.250;-1.118;2023-04-06T06:07:50;2.75;;;2.55;;
70667;SDS011;58242;51.250;-1.118;2023-04-06T06:10:16;1.92;;;1.92;;
70667;SDS011;58242;51.250;-1.118;2023-04-06T06:12:42;2.20;;;2.10;;
70667;SDS011;58242;51.250;-1.118;2023-04-06T06:15:07;2.38;;;2.17;;
70667;SDS011;58242;51.250;-1.118;2023-04-06T06:17:33;2.20;;;2.10;;
70667;SDS011;58242;51.250;-1.118;2023-04-06T06:19:59;2.78;;;2.38;;
70667;SDS011;58242;51.250;-1.118;2023-04-06T06:22:24;2.70;;;2.50;;
70667;SDS011;58242;51.250;-1.118;2023-04-06T06:24:50;2.78;;;2.50;;
70667;SDS011;58242;51.250;-1.118;2023-04-06T06:27:15;2.13;;;2.03;;
70667;SDS011;58242;51.250;-1.118;2023-04-06T06:29:40;1.92;;;1.83;;
70667;SDS011;58242;51.250;-1.118;2023-04-06T06:32:06;2.25;;;2.00;;
70667;SDS011;58242;51.250;-1.118;2023-04-06T06:34:33;1.98;;;1.88;;
70667;SDS011;58242;51.250;-1.118;2023-04-06T06:36:59;2.33;;;2.10;;
70667;SDS011;58242;51.250;-1.118;2023-04-06T06:39:25;3.60;;;2.00;;
70667;SDS011;58242;51.250;-1.118;2023-04-06T06:41:51;2.67;;;2.53;;
70667;SDS011;58242;51.250;-1.118;2023-04-06T06:44:16;2.67;;;2.50;;
70667;SDS011;58242;51.250;-1.118;2023-04-06T06:46:41;3.00;;;2.33;;
70667;SDS011;58242;51.250;-1.118;2023-04-06T06:49:07;2.00;;;1.90;;
70667;SDS011;58242;51.250;-1.118;2023-04-06T06:51:32;2.30;;;2.20;;
70667;SDS011;58242;51.250;-1.118;2023-04-06T06:53:57;2.47;;;2.03;;
70667;SDS011;58242;51.250;-1.118;2023-04-06T06:56:23;2.42;;;1.90;;
70667;SDS011;58242;51.250;-1.118;2023-04-06T06:58:48;2.90;;;2.28;;
70667;SDS011;58242;51.250;-1.118;2023-04-06T07:01:13;2.83;;;2.00;;
70667;SDS011;58242;51.250;-1.118;2023-04-06T07:03:38;2.47;;;2.28;;
70667;SDS011;58242;51.250;-1.118;2023-04-06T07:06:04;3.67;;;1.90;;
70667;SDS011;58242;51.250;-1.118;2023-04-06T07:08:29;6.47;;;2.45;;
70667;SDS011;58242;51.250;-1.118;2023-04-06T07:10:54;3.55;;;2.40;;
70667;SDS011;58242;51.250;-1.118;2023-04-06T07:13:22;2.65;;;2.45;;
70667;SDS011;58242;51.250;-1.118;2023-04-06T07:15:49;2.35;;;2.20;;
70667;SDS011;58242;51.250;-1.118;2023-04-06T07:18:15;3.42;;;2.17;;
70667;SDS011;58242;51.250;-1.118;2023-04-06T07:20:41;3.60;;;2.53;;
70667;SDS011;58242;51.250;-1.118;2023-04-06T07:23:06;2.38;;;2.22;;
70667;SDS011;58242;51.250;-1.118;2023-04-06T07:25:31;4.82;;;2.60;;
70667;SDS011;58242;51.250;-1.118;2023-04-06T07:27:57;8.60;;;2.75;;
70667;SDS011;58242;51.250;-1.118;2023-04-06T07:30:22;2.30;;;2.10;;
70667;SDS011;58242;51.250;-1.118;2023-04-06T07:32:50;2.20;;;2.00;;
70667;SDS011;58242;51.250;-1.118;2023-04-06T07:35:15;6.90;;;2.30;;
70667;SDS011;58242;51.250;-1.118;2023-04-06T07:37:41;4.18;;;2.90;;
70667;SDS011;58242;51.250;-1.118;2023-04-06T07:40:07;5.85;;;3.33;;
70667;SDS011;58242;51.250;-1.118;2023-04-06T07:42:33;3.67;;;2.90;;
70667;SDS011;58242;51.250;-1.118;2023-04-06T07:44:58;4.55;;;2.90;;
70667;SDS011;58242;51.250;-1.118;2023-04-06T07:47:23;3.42;;;2.47;;
70667;SDS011;58242;51.250;-1.118;2023-04-06T07:49:49;4.57;;;2.55;;
70667;SDS011;58242;51.250;-1.118;2023-04-06T07:52:15;4.43;;;3.03;;
70667;SDS011;58242;51.250;-1.118;2023-04-06T07:54:40;3.20;;;2.50;;
70667;SDS011;58242;51.250;-1.118;2023-04-06T07:57:06;6.68;;;2.72;;
70667;SDS011;58242;51.250;-1.118;2023-04-06T07:59:32;3.45;;;3.00;;
70667;SDS011;58242;51.250;-1.118;2023-04-06T08:01:57;9.70;;;3.22;;
70667;SDS011;58242;51.250;-1.118;2023-04-06T08:04:22;6.20;;;3.15;;
70667;SDS011;58242;51.250;-1.118;2023-04-06T08:06:47;10.35;;;3.78;;
70667;SDS011;58242;51.250;-1.118;2023-04-06T08:09:13;4.75;;;3.50;;
70667;SDS011;58242;51.250;-1.118;2023-04-06T08:11:38;6.85;;;3.15;;
70667;SDS011;58242;51.250;-1.118;2023-04-06T08:14:03;6.25;;;3.55;;
70667;SDS011;58242;51.250;-1.118;2023-04-06T08:16:29;4.25;;;3.33;;
70667;SDS011;58242;51.250;-1.118;2023-04-06T08:18:54;5.47;;;3.60;;
70667;SDS011;58242;51.250;-1.118;2023-04-06T08:21:20;6.47;;;3.50;;
70667;SDS011;58242;51.250;-1.118;2023-04-06T08:23:45;5.40;;;3.13;;
70667;SDS011;58242;51.250;-1.118;2023-04-06T08:26:11;5.28;;;3.20;;
70667;SDS011;58242;51.250;-1.118;2023-04-06T08:28:37;5.30;;;3.33;;
70667;SDS011;58242;51.250;-1.118;2023-04-06T08:31:03;5.30;;;3.55;;
70667;SDS011;58242;51.250;-1.118;2023-04-06T08:33:30;9.07;;;3.58;;
70667;SDS011;58242;51.250;-1.118;2023-04-06T08:35:56;8.27;;;3.90;;
70667;SDS011;58242;51.250;-1.118;2023-04-06T08:38:21;9.82;;;4.10;;
70667;SDS011;58242;51.250;-1.118;2023-04-06T08:40:46;8.70;;;4.07;;
70667;SDS011;58242;51.250;-1.118;2023-04-06T08:43:14;5.20;;;3.65;;
70667;SDS011;58242;51.250;-1.118;2023-04-06T08:45:42;6.43;;;4.00;;
70667;SDS011;58242;51.250;-1.118;2023-04-06T08:48:08;5.85;;;3.75;;
70667;SDS011;58242;51.250;-1.118;2023-04-06T08:50:34;5.88;;;3.88;;
70667;SDS011;58242;51.250;-1.118;2023-04-06T08:53:00;7.82;;;4.38;;
70667;SDS011;58242;51.250;-1.118;2023-04-06T08:55:26;8.13;;;4.82;;
70667;SDS011;58242;51.250;-1.118;2023-04-06T08:57:52;6.65;;;3.75;;
70667;SDS011;58242;51.250;-1.118;2023-04-06T09:00:21;7.00;;;4.53;;
70667;SDS011;58242;51.250;-1.118;2023-04-06T09:02:46;6.18;;;4.18;;
70667;SDS011;58242;51.250;-1.118;2023-04-06T09:05:14;8.18;;;4.43;;
70667;SDS011;58242;51.250;-1.118;2023-04-06T09:07:40;4.20;;;3.55;;
70667;SDS011;58242;51.250;-1.118;2023-04-06T09:10:06;6.00;;;4.07;;
70667;SDS011;58242;51.250;-1.118;2023-04-06T09:12:32;6.43;;;3.50;;
70667;SDS011;58242;51.250;-1.118;2023-04-06T09:14:58;5.35;;;3.83;;
70667;SDS011;58242;51.250;-1.118;2023-04-06T09:19:55;4.72;;;3.53;;
70667;SDS011;58242;51.250;-1.118;2023-04-06T09:22:21;5.18;;;3.40;;
70667;SDS011;58242;51.250;-1.118;2023-04-06T09:24:50;3.63;;;3.30;;
70667;SDS011;58242;51.250;-1.118;2023-04-06T09:27:17;3.50;;;3.20;;
70667;SDS011;58242;51.250;-1.118;2023-04-06T09:29:43;3.83;;;3.25;;
70667;SDS011;58242;51.250;-1.118;2023-04-06T09:32:09;4.05;;;3.25;;
70667;SDS011;58242;51.250;-1.118;2023-04-06T09:34:39;5.68;;;3.15;;
70667;SDS011;58242;51.250;-1.118;2023-04-06T09:39:39;6.38;;;3.78;;
70667;SDS011;58242;51.250;-1.118;2023-04-06T09:42:04;7.28;;;3.60;;
70667;SDS011;58242;51.250;-1.118;2023-04-06T09:44:30;4.70;;;3.33;;
70667;SDS011;58242;51.250;-1.118;2023-04-06T09:46:55;6.60;;;3.67;;
70667;SDS011;58242;51.250;-1.118;2023-04-06T09:49:21;4.00;;;3.60;;
70667;SDS011;58242;51.250;-1.118;2023-04-06T09:51:54;5.82;;;3.83;;
70667;SDS011;58242;51.250;-1.118;2023-04-06T09:54:23;3.47;;;3.10;;
70667;SDS011;58242;51.250;-1.118;2023-04-06T09:56:58;6.22;;;3.35;;
70667;SDS011;58242;51.250;-1.118;2023-04-06T10:01:55;4.63;;;3.33;;
70667;SDS011;58242;51.250;-1.118;2023-04-06T10:07:06;3.92;;;3.30;;
70667;SDS011;58242;51.250;-1.118;2023-04-06T10:09:33;4.25;;;3.38;;
70667;SDS011;58242;51.250;-1.118;2023-04-06T10:12:05;3.47;;;2.97;;
70667;SDS011;58242;51.250;-1.118;2023-04-06T10:14:34;2.92;;;2.63;;
70667;SDS011;58242;51.250;-1.118;2023-04-06T10:17:02;2.75;;;2.53;;
70667;SDS011;58242;51.250;-1.118;2023-04-06T10:19:29;5.40;;;2.63;;
70667;SDS011;58242;51.250;-1.118;2023-04-06T10:22:01;3.80;;;3.00;;
70667;SDS011;58242;51.250;-1.118;2023-04-06T10:24:30;3.45;;;3.15;;
70667;SDS011;58242;51.250;-1.118;2023-04-06T10:27:00;4.15;;;2.78;;
70667;SDS011;58242;51.250;-1.118;2023-04-06T10:29:27;3.28;;;2.95;;
70667;SDS011;58242;51.250;-1.118;2023-04-06T10:31:52;3.35;;;2.30;;
70667;SDS011;58242;51.250;-1.118;2023-04-06T10:34:18;3.10;;;2.50;;
70667;SDS011;58242;51.250;-1.118;2023-04-06T10:36:43;5.07;;;2.70;;
70667;SDS011;58242;51.250;-1.118;2023-04-06T10:39:08;4.13;;;3.22;;
70667;SDS011;58242;51.250;-1.118;2023-04-06T10:43:59;3.45;;;2.60;;
70667;SDS011;58242;51.250;-1.118;2023-04-06T10:46:26;5.85;;;2.70;;
70667;SDS011;58242;51.250;-1.118;2023-04-06T10:48:55;4.90;;;2.75;;
70667;SDS011;58242;51.250;-1.118;2023-04-06T10:51:25;2.60;;;2.40;;
70667;SDS011;58242;51.250;-1.118;2023-04-06T10:53:52;3.00;;;2.63;;
70667;SDS011;58242;51.250;-1.118;2023-04-06T10:56:21;3.10;;;2.10;;
70667;SDS011;58242;51.250;-1.118;2023-04-06T10:58:48;2.58;;;2.38;;
70667;SDS011;58242;51.250;-1.118;2023-04-06T11:01:17;2.65;;;2.00;;
70667;SDS011;58242;51.250;-1.118;2023-04-06T11:03:44;2.72;;;2.50;;
70667;SDS011;58242;51.250;-1.118;2023-04-06T11:06:10;3.55;;;2.38;;
70667;SDS011;58242;51.250;-1.118;2023-04-06T11:08:43;3.28;;;2.45;;
70667;SDS011;58242;51.250;-1.118;2023-04-06T11:11:12;2.60;;;2.40;;
70667;SDS011;58242;51.250;-1.118;2023-04-06T11:13:50;3.00;;;2.80;;
70667;SDS011;58242;51.250;-1.118;2023-04-06T11:16:20;3.45;;;2.28;;
70667;SDS011;58242;51.250;-1.118;2023-04-06T11:18:46;3.33;;;2.33;;
70667;SDS011;58242;51.250;-1.118;2023-04-06T11:24:12;3.17;;;2.83;;
70667;SDS011;58242;51.250;-1.118;2023-04-06T11:26:46;2.53;;;2.42;;
70667;SDS011;58242;51.250;-1.118;2023-04-06T11:31:52;4.00;;;2.40;;
70667;SDS011;58242;51.250;-1.118;2023-04-06T11:34:25;2.40;;;2.20;;
70667;SDS011;58242;51.250;-1.118;2023-04-06T11:36:57;2.60;;;2.15;;
70667;SDS011;58242;51.250;-1.118;2023-04-06T11:39:25;2.75;;;2.13;;
70667;SDS011;58242;51.250;-1.118;2023-04-06T11:41:52;2.40;;;2.30;;
70667;SDS011;58242;51.250;-1.118;2023-04-06T11:44:38;5.20;;;2.90;;
70667;SDS011;58242;51.250;-1.118;2023-04-06T11:47:06;3.95;;;3.08;;
70667;SDS011;58242;51.250;-1.118;2023-04-06T11:49:33;2.70;;;2.60;;
70667;SDS011;58242;51.250;-1.118;2023-04-06T11:54:34;2.40;;;2.30;;
70667;SDS011;58242;51.250;-1.118;2023-04-06T11:57:01;3.05;;;2.75;;
70667;SDS011;58242;51.250;-1.118;2023-04-06T11:59:27;2.70;;;2.50;;
70667;SDS011;58242;51.250;-1.118;2023-04-06T12:01:52;2.55;;;2.17;;
70667;SDS011;58242;51.250;-1.118;2023-04-06T12:04:18;3.45;;;2.50;;
70667;SDS011;58242;51.250;-1.118;2023-04-06T12:06:44;2.90;;;2.70;;
70667;SDS011;58242;51.250;-1.118;2023-04-06T12:09:09;2.83;;;2.63;;
70667;SDS011;58242;51.250;-1.118;2023-04-06T12:11:35;3.30;;;2.58;;
70667;SDS011;58242;51.250;-1.118;2023-04-06T12:14:00;2.90;;;2.55;;
70667;SDS011;58242;51.250;-1.118;2023-04-06T12:16:26;5.97;;;3.33;;
70667;SDS011;58242;51.250;-1.118;2023-04-06T12:18:52;3.13;;;2.85;;
70667;SDS011;58242;51.250;-1.118;2023-04-06T12:21:17;4.72;;;2.72;;
70667;SDS011;58242;51.250;-1.118;2023-04-06T12:23:42;3.22;;;2.95;;
70667;SDS011;58242;51.250;-1.118;2023-04-06T12:26:08;4.78;;;3.00;;
70667;SDS011;58242;51.250;-1.118;2023-04-06T12:28:33;3.10;;;2.22;;
70667;SDS011;58242;51.250;-1.118;2023-04-06T12:30:58;3.47;;;2.90;;
70667;SDS011;58242;51.250;-1.118;2023-04-06T12:33:24;2.95;;;2.70;;
70667;SDS011;58242;51.250;-1.118;2023-04-06T12:35:50;3.83;;;2.83;;
70667;SDS011;58242;51.250;-1.118;2023-04-06T12:38:15;3.60;;;2.70;;
70667;SDS011;58242;51.250;-1.118;2023-04-06T12:40:41;2.40;;;2.25;;
70667;SDS011;58242;51.250;-1.118;2023-04-06T12:43:06;2.83;;;2.45;;
70667;SDS011;58242;51.250;-1.118;2023-04-06T12:45:32;2.45;;;2.28;;
70667;SDS011;58242;51.250;-1.118;2023-04-06T12:47:57;3.90;;;2.45;;
70667;SDS011;58242;51.250;-1.118;2023-04-06T12:50:23;3.47;;;3.17;;
70667;SDS011;58242;51.250;-1.118;2023-04-06T12:52:48;3.90;;;2.78;;
70667;SDS011;58242;51.250;-1.118;2023-04-06T12:55:13;2.80;;;2.50;;
70667;SDS011;58242;51.250;-1.118;2023-04-06T12:57:39;4.25;;;2.67;;
70667;SDS011;58242;51.250;-1.118;2023-04-06T13:00:05;3.00;;;2.70;;
70667;SDS011;58242;51.250;-1.118;2023-04-06T13:02:32;2.60;;;2.03;;
70667;SDS011;58242;51.250;-1.118;2023-04-06T13:04:57;2.00;;;1.90;;
70667;SDS011;58242;51.250;-1.118;2023-04-06T13:07:23;2.35;;;2.10;;
70667;SDS011;58242;51.250;-1.118;2023-04-06T13:09:48;1.92;;;1.83;;
70667;SDS011;58242;51.250;-1.118;2023-04-06T13:12:14;2.08;;;1.88;;
70667;SDS011;58242;51.250;-1.118;2023-04-06T13:14:40;1.60;;;1.50;;
70667;SDS011;58242;51.250;-1.118;2023-04-06T13:17:06;1.65;;;1.55;;
70667;SDS011;58242;51.250;-1.118;2023-04-06T13:19:32;1.30;;;1.30;;
70667;SDS011;58242;51.250;-1.118;2023-04-06T13:21:57;1.42;;;1.40;;
70667;SDS011;58242;51.250;-1.118;2023-04-06T13:24:22;1.40;;;1.40;;
70667;SDS011;58242;51.250;-1.118;2023-04-06T13:26:48;1.75;;;1.65;;
70667;SDS011;58242;51.250;-1.118;2023-04-06T13:29:14;1.55;;;1.50;;
70667;SDS011;58242;51.250;-1.118;2023-04-06T13:31:39;1.50;;;1.50;;
70667;SDS011;58242;51.250;-1.118;2023-04-06T13:34:05;1.50;;;1.50;;
70667;SDS011;58242;51.250;-1.118;2023-04-06T13:36:30;1.50;;;1.50;;
70667;SDS011;58242;51.250;-1.118;2023-04-06T13:38:57;2.10;;;2.03;;
70667;SDS011;58242;51.250;-1.118;2023-04-06T13:41:23;2.00;;;1.90;;
70667;SDS011;58242;51.250;-1.118;2023-04-06T13:43:51;2.72;;;2.03;;
70667;SDS011;58242;51.250;-1.118;2023-04-06T13:46:17;2.42;;;2.25;;
70667;SDS011;58242;51.250;-1.118;2023-04-06T13:48:42;2.90;;;2.20;;
70667;SDS011;58242;51.250;-1.118;2023-04-06T13:51:09;2.90;;;2.70;;
70667;SDS011;58242;51.250;-1.118;2023-04-06T13:53:34;2.67;;;2.50;;
70667;SDS011;58242;51.250;-1.118;2023-04-06T13:56:00;2.72;;;2.53;;
70667;SDS011;58242;51.250;-1.118;2023-04-06T13:58:25;2.28;;;2.17;;
70667;SDS011;58242;51.250;-1.118;2023-04-06T14:00:50;2.30;;;2.10;;
70667;SDS011;58242;51.250;-1.118;2023-04-06T14:03:16;3.65;;;2.42;;
70667;SDS011;58242;51.250;-1.118;2023-04-06T14:05:41;3.03;;;2.50;;
70667;SDS011;58242;51.250;-1.118;2023-04-06T14:08:07;2.60;;;2.50;;
70667;SDS011;58242;51.250;-1.118;2023-04-06T14:10:36;2.78;;;2.40;;
70667;SDS011;58242;51.250;-1.118;2023-04-06T14:13:05;2.15;;;2.00;;
70667;SDS011;58242;51.250;-1.118;2023-04-06T14:15:31;2.10;;;2.00;;
70667;SDS011;58242;51.250;-1.118;2023-04-06T14:17:58;1.50;;;1.50;;
70667;SDS011;58242;51.250;-1.118;2023-04-06T14:20:24;2.10;;;2.00;;
70667;SDS011;58242;51.250;-1.118;2023-04-06T14:22:49;1.95;;;1.90;;
70667;SDS011;58242;51.250;-1.118;2023-04-06T14:25:17;1.90;;;1.88;;
70667;SDS011;58242;51.250;-1.118;2023-04-06T14:27:43;3.33;;;2.97;;
70667;SDS011;58242;51.250;-1.118;2023-04-06T14:30:08;2.85;;;2.65;;
70667;SDS011;58242;51.250;-1.118;2023-04-06T14:32:34;2.22;;;2.03;;
70667;SDS011;58242;51.250;-1.118;2023-04-06T14:35:01;2.97;;;2.67;;
70667;SDS011;58242;51.250;-1.118;2023-04-06T14:37:26;2.05;;;1.95;;
70667;SDS011;58242;51.250;-1.118;2023-04-06T14:39:52;2.38;;;2.28;;
70667;SDS011;58242;51.250;-1.118;2023-04-06T14:42:17;3.92;;;2.80;;
70667;SDS011;58242;51.250;-1.118;2023-04-06T14:44:42;3.05;;;2.80;;
70667;SDS011;58242;51.250;-1.118;2023-04-06T14:47:10;2.80;;;2.60;;